Time;durP1;ratioP1;P1;durP2;ratioP2;P2;SDS_P1;SDS_P2;PMS_P1;PMS_P2;Temp;Humidity;BMP_temperature;BMP_pressure;BME280_temperature;BME280_humidity;BME280_pressure;Samples;Min_cycle;Max_cycle;Signal;HPM_P1;HPM_P2
2023/01/31 00:01:39;;;;;;;14.75;4.65;;;;;;;;;;5031017;28;20021;-74
2023/01/31 00:04:24;;;;;;;12.02;4.07;;;;;;;;;;5033196;28;20332;-74
2023/01/31 00:07:09;;;;;;;13.10;4.25;;;;;;;;;;5031845;28;20021;-74
2023/01/31 00:09:54;;;;;;;12.10;3.72;;;;;;;;;;5030799;28;20447;-72
2023/01/31 00:12:40;;;;;;;8.52;3.53;;;;;;;;;;5032714;28;20288;-73
2023/01/31 00:15:25;;;;;;;10.50;3.80;;;;;;;;;;5033208;28;20130;-72
2023/01/31 01:24:45;;;;;;;11.05;3.13;;;;;;;;;;5006776;22;20172;-70
2023/01/31 01:27:30;;;;;;;8.70;3.45;;;;;;;;;;5009980;28;20030;-68
2023/01/31 01:30:16;;;;;;;11.40;3.70;;;;;;;;;;4995432;28;20044;-69
2023/01/31 01:33:01;;;;;;;8.38;2.97;;;;;;;;;;5001238;28;20026;-72
2023/01/31 01:35:46;;;;;;;10.32;4.03;;;;;;;;;;4981665;28;20032;-72
2023/01/31 01:38:34;;;;;;;10.02;4.65;;;;;;;;;;4997533;28;20754;-70
2023/01/31 01:41:20;;;;;;;8.43;3.42;;;;;;;;;;4996886;28;20029;-69
2023/01/31 01:44:24;;;;;;;8.30;3.30;;;;;;;;;;4990991;28;20022;-69
2023/01/31 01:47:30;;;;;;;12.63;3.63;;;;;;;;;;5004033;28;20014;-70
2023/01/31 01:50:24;;;;;;;13.70;3.50;;;;;;;;;;4984731;28;20520;-68
2023/01/31 01:53:17;;;;;;;7.85;3.35;;;;;;;;;;4986815;28;20049;-72
2023/01/31 01:56:06;;;;;;;8.15;3.10;;;;;;;;;;5001742;28;20117;-72
2023/01/31 01:58:54;;;;;;;10.20;3.42;;;;;;;;;;4991188;28;20026;-73
2023/01/31 02:01:39;;;;;;;11.10;3.97;;;;;;;;;;5007414;28;20032;-72
2023/01/31 02:04:29;;;;;;;13.07;3.25;;;;;;;;;;4992068;28;20029;-68
2023/01/31 02:07:14;;;;;;;;;;;;;;;;;;5002463;28;20028;-71
2023/01/31 02:10:01;;;;;;;12.60;4.80;;;;;;;;;;4986103;28;19922;-73
2023/01/31 02:12:47;;;;;;;8.25;3.17;;;;;;;;;;4978368;28;20170;-70
2023/01/31 02:15:32;;;;;;;9.32;3.63;;;;;;;;;;4986112;28;20026;-75
2023/01/31 02:18:19;;;;;;;9.35;3.00;;;;;;;;;;4994690;28;20022;-69
2023/01/31 02:21:23;;;;;;;7.65;3.53;;;;;;;;;;4984412;28;20579;-71
2023/01/31 02:24:11;;;;;;;9.70;4.10;;;;;;;;;;5000791;28;20042;-74
2023/01/31 02:27:17;;;;;;;8.13;3.38;;;;;;;;;;4991851;28;20443;-72
2023/01/31 02:30:35;;;;;;;6.53;3.33;;;;;;;;;;4998899;28;20027;-71
2023/01/31 02:33:24;;;;;;;7.18;3.65;;;;;;;;;;4967718;28;20524;-71
2023/01/31 02:36:10;;;;;;;;;;;;;;;;;;4990250;28;20717;-77
2023/01/31 02:38:57;;;;;;;8.57;2.75;;;;;;;;;;4979926;28;19968;-70
2023/01/31 02:41:49;;;;;;;7.85;2.60;;;;;;;;;;4998217;28;20033;-70
2023/01/31 02:44:59;;;;;;;7.05;3.08;;;;;;;;;;4992180;28;20026;-69
2023/01/31 02:48:03;;;;;;;8.50;2.90;;;;;;;;;;4998518;28;20053;-69
2023/01/31 02:50:56;;;;;;;9.50;3.22;;;;;;;;;;4977098;28;20030;-71
2023/01/31 02:53:57;;;;;;;6.95;3.17;;;;;;;;;;4991534;28;20021;-75
2023/01/31 02:56:43;;;;;;;7.15;2.85;;;;;;;;;;4997801;28;20037;-79
2023/01/31 02:59:30;;;;;;;9.60;3.92;;;;;;;;;;4977447;28;20037;-79
2023/01/31 03:02:16;;;;;;;8.20;3.63;;;;;;;;;;4998130;28;20034;-77
2023/01/31 03:05:01;;;;;;;8.52;3.22;;;;;;;;;;4978093;28;20109;-79
2023/01/31 03:07:50;;;;;;;8.02;3.03;;;;;;;;;;4974126;28;20033;-78
2023/01/31 03:11:05;;;;;;;5.60;2.95;;;;;;;;;;4988821;28;20033;-73
2023/01/31 03:13:56;;;;;;;7.75;3.38;;;;;;;;;;4983792;28;20065;-75
2023/01/31 03:20:01;;;;;;;7.22;3.10;;;;;;;;;;5002117;28;20022;-75
2023/01/31 03:22:57;;;;;;;7.40;3.97;;;;;;;;;;4987612;28;20553;-76
2023/01/31 03:25:43;;;;;;;11.10;3.00;;;;;;;;;;4986862;28;20034;-73
2023/01/31 03:28:30;;;;;;;9.18;3.00;;;;;;;;;;4992939;28;20072;-75
2023/01/31 03:31:17;;;;;;;7.32;3.15;;;;;;;;;;4979901;28;20038;-72
2023/01/31 03:34:04;;;;;;;6.90;2.92;;;;;;;;;;5004528;28;20026;-69
2023/01/31 03:36:49;;;;;;;6.00;3.10;;;;;;;;;;4997657;28;20105;-71
2023/01/31 03:39:44;;;;;;;8.57;4.18;;;;;;;;;;4991896;28;20089;-68
2023/01/31 03:42:36;;;;;;;10.77;4.22;;;;;;;;;;4990658;28;20606;-70
2023/01/31 03:45:42;;;;;;;7.93;2.80;;;;;;;;;;4989047;28;20029;-70
2023/01/31 03:48:32;;;;;;;10.45;2.97;;;;;;;;;;4994521;28;20033;-73
2023/01/31 03:51:18;;;;;;;9.07;3.20;;;;;;;;;;4993123;28;20041;-79
2023/01/31 03:54:05;;;;;;;7.68;3.22;;;;;;;;;;4992209;28;20045;-78
2023/01/31 03:56:56;;;;;;;9.30;3.45;;;;;;;;;;4991529;28;20140;-79
2023/01/31 03:59:43;;;;;;;9.52;4.20;;;;;;;;;;4991580;28;20034;-79
2023/01/31 04:02:32;;;;;;;9.13;3.30;;;;;;;;;;4994113;28;20443;-78
2023/01/31 04:05:19;;;;;;;6.78;3.40;;;;;;;;;;4998858;28;20026;-78
2023/01/31 04:08:04;;;;;;;7.53;3.20;;;;;;;;;;4999213;28;20164;-73
2023/01/31 04:10:50;;;;;;;11.55;4.55;;;;;;;;;;4981490;28;20069;-81
2023/01/31 04:13:35;;;;;;;8.50;3.13;;;;;;;;;;4995775;28;20022;-80
2023/01/31 04:16:20;;;;;;;8.93;2.97;;;;;;;;;;4977162;28;20052;-79
2023/01/31 04:19:05;;;;;;;8.05;3.75;;;;;;;;;;4993485;28;20025;-78
2023/01/31 04:21:51;;;;;;;8.85;3.42;;;;;;;;;;4995878;28;20049;-79
2023/01/31 04:24:36;;;;;;;9.88;3.58;;;;;;;;;;5003429;28;20033;-76
2023/01/31 04:27:21;;;;;;;7.75;3.67;;;;;;;;;;4988755;28;20041;-70
2023/01/31 04:30:07;;;;;;;6.95;3.08;;;;;;;;;;4987103;28;20034;-71
2023/01/31 04:32:52;;;;;;;9.73;3.28;;;;;;;;;;5000379;28;20021;-69
2023/01/31 04:35:40;;;;;;;14.77;3.63;;;;;;;;;;4989949;28;20805;-71
2023/01/31 04:38:25;;;;;;;17.80;4.80;;;;;;;;;;5006630;28;20080;-69
2023/01/31 04:41:10;;;;;;;8.48;3.53;;;;;;;;;;4995962;28;20030;-71
2023/01/31 04:43:56;;;;;;;9.52;3.97;;;;;;;;;;4992844;28;20386;-76
2023/01/31 04:46:41;;;;;;;11.13;3.72;;;;;;;;;;4994099;28;20033;-71
2023/01/31 04:49:27;;;;;;;10.80;3.22;;;;;;;;;;4980855;28;20037;-72
2023/01/31 04:52:12;;;;;;;8.73;3.30;;;;;;;;;;4996853;28;20034;-72
2023/01/31 04:54:58;;;;;;;12.73;5.38;;;;;;;;;;4991967;28;20121;-71
2023/01/31 04:57:43;;;;;;;7.88;4.05;;;;;;;;;;4992152;28;20311;-71
2023/01/31 05:00:29;;;;;;;17.58;6.30;;;;;;;;;;4976797;28;20034;-73
2023/01/31 05:03:14;;;;;;;11.13;3.42;;;;;;;;;;4995286;28;20029;-70
2023/01/31 05:05:59;;;;;;;12.80;4.68;;;;;;;;;;4990345;28;20022;-69
2023/01/31 05:08:44;;;;;;;11.25;4.43;;;;;;;;;;4996360;28;20205;-71
2023/01/31 05:11:30;;;;;;;13.05;4.57;;;;;;;;;;4989254;28;20045;-70
2023/01/31 05:14:15;;;;;;;10.55;4.43;;;;;;;;;;4982616;28;20081;-69
2023/01/31 05:17:01;;;;;;;7.63;3.75;;;;;;;;;;4977620;28;20052;-69
2023/01/31 05:19:47;;;;;;;8.20;3.65;;;;;;;;;;4990234;28;20025;-73
2023/01/31 05:22:32;;;;;;;11.73;3.92;;;;;;;;;;4991175;28;20022;-73
2023/01/31 05:25:18;;;;;;;9.77;3.72;;;;;;;;;;5003764;28;20243;-74
2023/01/31 05:28:04;;;;;;;11.50;4.72;;;;;;;;;;4984856;28;20030;-73
2023/01/31 05:30:49;;;;;;;11.20;3.97;;;;;;;;;;4988623;28;20476;-75
2023/01/31 05:33:34;;;;;;;11.98;4.75;;;;;;;;;;5002662;28;20025;-74
2023/01/31 05:36:19;;;;;;;9.65;4.05;;;;;;;;;;4979655;28;20495;-76
2023/01/31 05:39:05;;;;;;;11.13;4.03;;;;;;;;;;4992141;28;20084;-76
2023/01/31 05:41:51;;;;;;;10.45;3.88;;;;;;;;;;5001075;28;20038;-70
2023/01/31 05:44:36;;;;;;;14.18;3.67;;;;;;;;;;4978801;28;20492;-68
2023/01/31 05:47:23;;;;;;;12.65;3.25;;;;;;;;;;4989687;28;20283;-71
2023/01/31 05:50:09;;;;;;;9.32;4.38;;;;;;;;;;4997782;28;20040;-70
2023/01/31 05:52:56;;;;;;;11.77;3.22;;;;;;;;;;4988834;28;20493;-70
2023/01/31 05:55:42;;;;;;;9.05;4.35;;;;;;;;;;4985935;28;20049;-70
2023/01/31 05:58:27;;;;;;;15.55;4.32;;;;;;;;;;5008718;28;20033;-75
2023/01/31 06:01:12;;;;;;;14.73;4.70;;;;;;;;;;4992244;28;20117;-70
2023/01/31 06:03:57;;;;;;;11.82;4.18;;;;;;;;;;4993387;28;20163;-69
2023/01/31 06:06:44;;;;;;;9.48;3.63;;;;;;;;;;4989538;28;20555;-70
2023/01/31 06:09:29;;;;;;;9.68;3.92;;;;;;;;;;4979274;28;20257;-69
2023/01/31 06:12:14;;;;;;;12.80;4.32;;;;;;;;;;4990956;28;20053;-70
2023/01/31 06:14:59;;;;;;;15.35;4.20;;;;;;;;;;4996766;28;20034;-74
2023/01/31 06:17:45;;;;;;;12.57;5.88;;;;;;;;;;4989451;28;20072;-70
2023/01/31 06:20:30;;;;;;;9.40;4.50;;;;;;;;;;4989532;28;20036;-72
2023/01/31 06:23:15;;;;;;;9.63;4.30;;;;;;;;;;4995113;28;20030;-69
2023/01/31 06:26:00;;;;;;;8.55;4.68;;;;;;;;;;4997886;28;20062;-71
2023/01/31 06:28:46;;;;;;;11.90;4.88;;;;;;;;;;5001162;28;20489;-72
2023/01/31 06:31:31;;;;;;;12.80;4.20;;;;;;;;;;4991301;28;20049;-72
2023/01/31 06:34:16;;;;;;;7.45;4.10;;;;;;;;;;5010154;28;20018;-72
2023/01/31 06:37:01;;;;;;;9.48;3.55;;;;;;;;;;4993484;28;20030;-79
2023/01/31 06:39:47;;;;;;;10.40;4.05;;;;;;;;;;4980669;28;20476;-76
2023/01/31 06:42:32;;;;;;;10.13;3.80;;;;;;;;;;4995928;28;20050;-76
2023/01/31 06:45:17;;;;;;;10.35;4.78;;;;;;;;;;4985520;28;20026;-76
2023/01/31 06:48:02;;;;;;;8.98;4.45;;;;;;;;;;4989415;28;20032;-78
2023/01/31 06:50:48;;;;;;;9.85;4.53;;;;;;;;;;4994198;28;20049;-77
2023/01/31 06:53:33;;;;;;;9.70;4.50;;;;;;;;;;4998850;28;20021;-69
2023/01/31 06:56:18;;;;;;;7.25;3.88;;;;;;;;;;4994516;28;20070;-72
2023/01/31 06:59:03;;;;;;;9.65;4.50;;;;;;;;;;4989743;28;20476;-72
2023/01/31 07:01:49;;;;;;;13.43;4.75;;;;;;;;;;5010639;28;20024;-73
2023/01/31 07:04:34;;;;;;;11.25;3.92;;;;;;;;;;4983919;28;20105;-73
2023/01/31 07:07:19;;;;;;;16.48;5.43;;;;;;;;;;5005203;28;20021;-71
2023/01/31 07:10:05;;;;;;;10.07;4.35;;;;;;;;;;5004898;28;20088;-70
2023/01/31 07:12:50;;;;;;;8.30;3.90;;;;;;;;;;4990446;28;20121;-78
2023/01/31 07:15:35;;;;;;;9.27;4.30;;;;;;;;;;5002723;28;20065;-79
2023/01/31 07:18:20;;;;;;;10.50;3.92;;;;;;;;;;5008333;28;20017;-77
2023/01/31 07:21:05;;;;;;;12.05;4.65;;;;;;;;;;4994687;28;20030;-77
2023/01/31 07:23:51;;;;;;;11.18;5.57;;;;;;;;;;4987652;28;20025;-77
2023/01/31 07:26:36;;;;;;;13.80;4.70;;;;;;;;;;5009975;28;20041;-76
2023/01/31 07:29:21;;;;;;;12.15;5.07;;;;;;;;;;4994594;28;20071;-73
2023/01/31 07:32:06;;;;;;;10.75;5.07;;;;;;;;;;5006225;28;21702;-70
2023/01/31 07:34:52;;;;;;;15.02;5.03;;;;;;;;;;4999820;28;20121;-71
2023/01/31 07:37:38;;;;;;;10.52;4.90;;;;;;;;;;4993697;28;20117;-71
2023/01/31 07:40:23;;;;;;;13.40;4.68;;;;;;;;;;5002612;28;20128;-69
2023/01/31 07:43:08;;;;;;;14.40;6.30;;;;;;;;;;4993702;28;20018;-69
2023/01/31 07:45:54;;;;;;;12.75;4.88;;;;;;;;;;4997578;28;20046;-70
2023/01/31 07:48:39;;;;;;;16.90;5.00;;;;;;;;;;5001386;28;20380;-71
2023/01/31 07:51:24;;;;;;;13.48;4.68;;;;;;;;;;5003137;28;20041;-73
2023/01/31 07:54:10;;;;;;;13.35;4.65;;;;;;;;;;5009141;28;20472;-72
2023/01/31 07:56:55;;;;;;;11.57;5.20;;;;;;;;;;4994401;28;20057;-72
2023/01/31 07:59:40;;;;;;;9.60;4.35;;;;;;;;;;4986128;28;20065;-73
2023/01/31 08:05:29;;;;;;;11.30;4.60;;;;;;;;;;5002501;28;20350;-74
2023/01/31 08:08:14;;;;;;;14.35;4.60;;;;;;;;;;5005292;28;20034;-79
2023/01/31 08:11:00;;;;;;;12.65;4.30;;;;;;;;;;4993058;28;20026;-79
2023/01/31 08:13:45;;;;;;;9.98;5.22;;;;;;;;;;5006308;28;20032;-77
2023/01/31 08:16:30;;;;;;;10.98;5.00;;;;;;;;;;4990884;28;20700;-79
2023/01/31 08:19:16;;;;;;;10.50;5.20;;;;;;;;;;4991929;28;20021;-77
2023/01/31 08:22:01;;;;;;;9.75;4.00;;;;;;;;;;4997570;28;20021;-79
2023/01/31 08:24:46;;;;;;;12.25;4.70;;;;;;;;;;4986016;28;20080;-74
2023/01/31 08:27:32;;;;;;;10.77;4.47;;;;;;;;;;4988107;28;20385;-71
2023/01/31 08:30:17;;;;;;;16.17;4.78;;;;;;;;;;4985576;28;20038;-69
2023/01/31 08:33:02;;;;;;;17.83;5.05;;;;;;;;;;4995728;28;20044;-69
2023/01/31 08:35:47;;;;;;;17.30;4.68;;;;;;;;;;4999145;28;20499;-69
2023/01/31 08:38:33;;;;;;;11.55;4.07;;;;;;;;;;4985933;28;20021;-71
2023/01/31 08:41:19;;;;;;;14.32;4.45;;;;;;;;;;4997906;28;20033;-70
2023/01/31 08:44:05;;;;;;;10.35;3.97;;;;;;;;;;4994946;28;20025;-72
2023/01/31 08:46:50;;;;;;;10.68;5.10;;;;;;;;;;4979287;28;20080;-72
2023/01/31 08:49:35;;;;;;;12.57;4.65;;;;;;;;;;4999391;28;20033;-73
2023/01/31 08:52:21;;;;;;;9.70;4.10;;;;;;;;;;4991327;28;20448;-71
2023/01/31 08:55:08;;;;;;;13.63;5.57;;;;;;;;;;5008426;28;20071;-71
2023/01/31 08:57:53;;;;;;;11.60;4.22;;;;;;;;;;4986333;28;20037;-72
2023/01/31 09:00:38;;;;;;;13.63;4.70;;;;;;;;;;4987626;28;20053;-70
2023/01/31 09:03:24;;;;;;;8.90;3.50;;;;;;;;;;5008322;28;20032;-73
2023/01/31 09:06:11;;;;;;;14.30;4.15;;;;;;;;;;4986494;28;20026;-72
2023/01/31 09:08:57;;;;;;;10.80;4.50;;;;;;;;;;4972504;28;20095;-74
2023/01/31 09:11:42;;;;;;;12.73;4.22;;;;;;;;;;4993977;28;20488;-70
2023/01/31 09:14:27;;;;;;;15.10;4.65;;;;;;;;;;4987469;28;20021;-70
2023/01/31 09:17:13;;;;;;;15.05;4.45;;;;;;;;;;4975979;28;20021;-70
2023/01/31 09:19:58;;;;;;;17.15;4.60;;;;;;;;;;4979859;28;20021;-73
2023/01/31 09:22:43;;;;;;;11.93;5.75;;;;;;;;;;4994408;28;20037;-75
2023/01/31 09:25:29;;;;;;;10.02;3.47;;;;;;;;;;4984377;28;20029;-77
2023/01/31 09:28:14;;;;;;;9.57;4.32;;;;;;;;;;4999704;28;20022;-81
2023/01/31 09:31:06;;;;;;;8.85;3.45;;;;;;;;;;4992671;28;20034;-78
2023/01/31 09:33:53;;;;;;;9.77;3.45;;;;;;;;;;4990661;28;20026;-77
2023/01/31 09:36:38;;;;;;;9.75;3.47;;;;;;;;;;4990946;28;20037;-76
2023/01/31 09:39:24;;;;;;;11.68;3.60;;;;;;;;;;4992470;28;20361;-77
2023/01/31 09:42:39;;;;;;;9.45;3.75;;;;;;;;;;4993022;28;20101;-74
2023/01/31 09:45:28;;;;;;;10.68;3.85;;;;;;;;;;4985269;28;20038;-72
2023/01/31 09:48:18;;;;;;;12.02;4.38;;;;;;;;;;4980428;28;20153;-70
2023/01/31 09:51:04;;;;;;;13.77;5.05;;;;;;;;;;4992543;28;20492;-71
2023/01/31 09:53:50;;;;;;;9.73;3.65;;;;;;;;;;4991653;28;20040;-70
2023/01/31 09:56:44;;;;;;;11.60;3.78;;;;;;;;;;4994647;28;20421;-68
2023/01/31 09:59:59;;;;;;;12.35;3.78;;;;;;;;;;4994908;28;20026;-73
2023/01/31 10:03:09;;;;;;;12.65;3.38;;;;;;;;;;4970111;28;20481;-74
2023/01/31 10:06:00;;;;;;;9.15;4.35;;;;;;;;;;4978587;28;20767;-73
2023/01/31 10:08:52;;;;;;;14.98;3.50;;;;;;;;;;4996907;28;20786;-75
2023/01/31 10:11:37;;;;;;;8.48;4.25;;;;;;;;;;4991210;28;20504;-74
2023/01/31 10:14:34;;;;;;;7.28;2.95;;;;;;;;;;4994100;28;20387;-73
2023/01/31 10:17:25;;;;;;;8.98;4.35;;;;;;;;;;4989671;28;20461;-76
2023/01/31 10:20:21;;;;;;;11.82;3.85;;;;;;;;;;4995928;28;20045;-76
2023/01/31 10:23:12;;;;;;;12.50;3.30;;;;;;;;;;4991995;28;20421;-76
2023/01/31 10:25:59;;;;;;;6.88;3.28;;;;;;;;;;4995789;28;20527;-75
2023/01/31 10:28:48;;;;;;;13.20;3.67;;;;;;;;;;5002607;28;20033;-76
2023/01/31 10:31:37;;;;;;;10.33;3.20;;;;;;;;;;4993961;28;20159;-77
2023/01/31 10:34:28;;;;;;;9.00;3.45;;;;;;;;;;5005236;28;20018;-68
2023/01/31 10:37:18;;;;;;;7.45;3.15;;;;;;;;;;4993166;28;20029;-77
2023/01/31 10:40:15;;;;;;;13.35;3.28;;;;;;;;;;4993701;28;20064;-74
2023/01/31 10:43:03;;;;;;;11.00;2.95;;;;;;;;;;4980672;28;20057;-73
2023/01/31 10:45:49;;;;;;;11.75;2.78;;;;;;;;;;4992689;28;20026;-72
2023/01/31 10:48:34;;;;;;;8.38;3.58;;;;;;;;;;5000197;28;20037;-77
2023/01/31 10:51:28;;;;;;;8.80;2.50;;;;;;;;;;4995537;28;20152;-75
2023/01/31 10:54:20;;;;;;;7.40;3.08;;;;;;;;;;4993114;28;20022;-74
2023/01/31 10:57:06;;;;;;;10.00;2.95;;;;;;;;;;4995978;28;20044;-76
2023/01/31 10:59:52;;;;;;;11.35;4.55;;;;;;;;;;4994004;28;20065;-76
2023/01/31 11:02:37;;;;;;;8.82;2.63;;;;;;;;;;4992124;28;20037;-75
2023/01/31 11:05:24;;;;;;;13.93;3.15;;;;;;;;;;4994792;28;20032;-74
2023/01/31 11:08:19;;;;;;;11.68;3.28;;;;;;;;;;4995334;28;20042;-75
2023/01/31 11:11:06;;;;;;;12.45;3.75;;;;;;;;;;4994885;28;20025;-72
2023/01/31 11:13:59;;;;;;;10.10;3.70;;;;;;;;;;4994664;28;20154;-67
2023/01/31 11:16:44;;;;;;;9.98;3.47;;;;;;;;;;4993965;28;20476;-69
2023/01/31 11:19:33;;;;;;;7.47;2.63;;;;;;;;;;4992685;28;20019;-67
2023/01/31 11:22:38;;;;;;;7.53;3.15;;;;;;;;;;4999996;28;20468;-68
2023/01/31 11:25:24;;;;;;;9.93;2.72;;;;;;;;;;4994353;28;20033;-68
2023/01/31 11:28:36;;;;;;;8.82;2.33;;;;;;;;;;4982394;28;20477;-69
2023/01/31 11:31:30;;;;;;;15.20;2.80;;;;;;;;;;5002894;28;20037;-72
2023/01/31 11:34:23;;;;;;;11.15;2.58;;;;;;;;;;5013751;28;20028;-73
2023/01/31 11:37:14;;;;;;;7.90;2.80;;;;;;;;;;4993061;28;20092;-74
2023/01/31 11:40:11;;;;;;;8.88;2.92;;;;;;;;;;4989393;28;20105;-71
2023/01/31 11:42:58;;;;;;;9.50;3.03;;;;;;;;;;4999415;28;20043;-72
2023/01/31 11:45:44;;;;;;;6.88;2.25;;;;;;;;;;4991198;28;20030;-72
2023/01/31 11:48:42;;;;;;;8.43;2.75;;;;;;;;;;4996241;28;20105;-78
2023/01/31 11:51:29;;;;;;;12.18;4.10;;;;;;;;;;4991391;28;20664;-71
2023/01/31 11:54:23;;;;;;;8.25;2.65;;;;;;;;;;4994105;28;20500;-68
2023/01/31 11:57:31;;;;;;;10.98;3.00;;;;;;;;;;4974644;28;20030;-71
2023/01/31 12:00:27;;;;;;;9.88;3.05;;;;;;;;;;4994790;28;20087;-69
2023/01/31 12:03:14;;;;;;;8.00;2.50;;;;;;;;;;4993012;28;20117;-71
2023/01/31 12:06:03;;;;;;;6.40;2.35;;;;;;;;;;5001418;28;20026;-70
2023/01/31 12:08:52;;;;;;;5.43;2.70;;;;;;;;;;4988552;28;20033;-72
2023/01/31 12:11:48;;;;;;;7.43;2.78;;;;;;;;;;4986361;28;20041;-76
2023/01/31 12:14:41;;;;;;;14.65;2.72;;;;;;;;;;4991965;28;20030;-71
2023/01/31 12:17:28;;;;;;;8.38;2.83;;;;;;;;;;4989552;28;20037;-70
2023/01/31 12:20:19;;;;;;;9.32;3.05;;;;;;;;;;4995707;28;20029;-73
2023/01/31 12:23:16;;;;;;;5.78;2.58;;;;;;;;;;5008317;28;20037;-71
2023/01/31 12:26:02;;;;;;;9.48;3.10;;;;;;;;;;4990124;28;20485;-73
2023/01/31 12:28:53;;;;;;;9.25;3.28;;;;;;;;;;4993601;28;20433;-71
2023/01/31 12:31:41;;;;;;;8.52;2.47;;;;;;;;;;4991277;28;20038;-71
2023/01/31 12:34:45;;;;;;;8.02;2.03;;;;;;;;;;4996600;28;20065;-72
2023/01/31 12:37:49;;;;;;;10.88;1.88;;;;;;;;;;5004664;28;20086;-71
2023/01/31 12:40:58;;;;;;;10.68;2.83;;;;;;;;;;4995865;28;20627;-68
2023/01/31 12:43:53;;;;;;;6.05;2.13;;;;;;;;;;5005610;28;20057;-74
2023/01/31 12:46:41;;;;;;;7.18;2.28;;;;;;;;;;4992938;28;20690;-73
2023/01/31 12:49:26;;;;;;;4.90;1.73;;;;;;;;;;4990486;28;20415;-72
2023/01/31 12:52:20;;;;;;;8.68;2.90;;;;;;;;;;4996452;28;20499;-71
2023/01/31 12:55:12;;;;;;;8.10;2.50;;;;;;;;;;4996791;28;20036;-70
2023/01/31 12:58:00;;;;;;;9.73;2.90;;;;;;;;;;4993983;28;20019;-72
2023/01/31 13:00:59;;;;;;;9.10;2.97;;;;;;;;;;4991053;28;20242;-76
2023/01/31 13:03:54;;;;;;;8.98;2.22;;;;;;;;;;4992570;28;20029;-77
2023/01/31 13:06:49;;;;;;;6.15;2.10;;;;;;;;;;5002134;28;20088;-78
2023/01/31 13:09:35;;;;;;;11.00;2.60;;;;;;;;;;4997770;28;20064;-77
2023/01/31 13:12:24;;;;;;;9.02;2.28;;;;;;;;;;4985506;28;20522;-75
2023/01/31 13:15:27;;;;;;;8.30;3.05;;;;;;;;;;4994522;28;20037;-75
2023/01/31 13:18:13;;;;;;;7.15;2.67;;;;;;;;;;4993785;28;20026;-74
2023/01/31 13:21:02;;;;;;;7.80;2.75;;;;;;;;;;4980985;28;20208;-71
2023/01/31 13:23:50;;;;;;;6.87;2.23;;;;;;;;;;4992970;28;20033;-74
2023/01/31 13:26:56;;;;;;;5.88;2.63;;;;;;;;;;5005100;28;20042;-73
2023/01/31 13:29:56;;;;;;;6.05;2.30;;;;;;;;;;4989820;28;20060;-73
2023/01/31 13:32:45;;;;;;;9.15;3.55;;;;;;;;;;4992746;28;20033;-71
2023/01/31 13:35:32;;;;;;;11.05;2.75;;;;;;;;;;4993687;28;20018;-70
2023/01/31 13:38:18;;;;;;;4.75;2.63;;;;;;;;;;4993536;28;20499;-69
2023/01/31 13:41:04;;;;;;;8.63;2.10;;;;;;;;;;5003599;28;20026;-72
2023/01/31 13:43:49;;;;;;;9.68;2.22;;;;;;;;;;4980487;28;20037;-71
2023/01/31 13:46:44;;;;;;;6.60;2.53;;;;;;;;;;4995129;28;20479;-71
2023/01/31 13:49:38;;;;;;;4.82;1.67;;;;;;;;;;4990443;28;20036;-72
2023/01/31 13:52:29;;;;;;;6.40;2.50;;;;;;;;;;4994525;28;20051;-72
2023/01/31 13:55:17;;;;;;;7.15;2.70;;;;;;;;;;4992812;28;20034;-68
2023/01/31 13:58:11;;;;;;;8.30;2.70;;;;;;;;;;4979760;28;20018;-74
2023/01/31 14:01:03;;;;;;;7.57;2.25;;;;;;;;;;4991866;28;20404;-73
2023/01/31 14:04:07;;;;;;;5.05;2.03;;;;;;;;;;4980472;28;20125;-74
2023/01/31 14:06:55;;;;;;;5.63;2.75;;;;;;;;;;5002700;28;20022;-73
2023/01/31 14:10:04;;;;;;;9.60;2.95;;;;;;;;;;4988573;28;20064;-71
2023/01/31 14:13:09;;;;;;;7.72;2.85;;;;;;;;;;4999301;28;20079;-69
2023/01/31 14:15:55;;;;;;;5.35;2.42;;;;;;;;;;4993137;28;20018;-66
2023/01/31 14:18:44;;;;;;;7.28;2.25;;;;;;;;;;4993158;28;20037;-69
2023/01/31 14:21:29;;;;;;;4.13;2.30;;;;;;;;;;5005023;28;20060;-67
2023/01/31 14:24:19;;;;;;;8.00;2.60;;;;;;;;;;4992412;28;20079;-66
2023/01/31 14:27:11;;;;;;;7.07;2.85;;;;;;;;;;4998290;28;20025;-69
2023/01/31 14:30:03;;;;;;;8.35;2.70;;;;;;;;;;4998410;28;20033;-67
2023/01/31 14:32:48;;;;;;;8.90;2.47;;;;;;;;;;4998695;28;20034;-78
2023/01/31 14:35:49;;;;;;;6.97;3.33;;;;;;;;;;4982715;28;20068;-74
2023/01/31 14:38:34;;;;;;;13.98;3.45;;;;;;;;;;4989578;28;20472;-75
2023/01/31 14:41:39;;;;;;;5.88;2.63;;;;;;;;;;4977648;28;20117;-75
2023/01/31 14:44:37;;;;;;;5.30;2.00;;;;;;;;;;4992796;28;20069;-76
2023/01/31 14:47:22;;;;;;;7.38;2.58;;;;;;;;;;5010353;28;20029;-78
2023/01/31 14:50:29;;;;;;;8.10;2.78;;;;;;;;;;4990795;28;20096;-70
2023/01/31 14:53:21;;;;;;;6.05;2.95;;;;;;;;;;4992079;28;20025;-68
2023/01/31 14:56:34;;;;;;;11.45;2.95;;;;;;;;;;4985631;28;20026;-68
2023/01/31 14:59:25;;;;;;;11.57;3.72;;;;;;;;;;4987329;28;20032;-69
2023/01/31 15:02:19;;;;;;;4.82;3.42;;;;;;;;;;4987032;28;20492;-69
2023/01/31 15:05:06;;;;;;;8.23;2.47;;;;;;;;;;4990042;28;20597;-69
2023/01/31 15:08:24;;;;;;;10.70;3.00;;;;;;;;;;4989783;28;20022;-78
2023/01/31 15:11:12;;;;;;;5.32;2.70;;;;;;;;;;4983506;28;20558;-72
2023/01/31 15:13:58;;;;;;;6.65;2.58;;;;;;;;;;4978890;28;20064;-72
2023/01/31 15:16:44;;;;;;;10.68;2.65;;;;;;;;;;4996117;28;20097;-73
2023/01/31 15:19:38;;;;;;;7.22;2.88;;;;;;;;;;4994487;28;20040;-73
2023/01/31 15:22:25;;;;;;;6.43;2.78;;;;;;;;;;4995133;28;20021;-73
2023/01/31 15:25:22;;;;;;;9.65;2.85;;;;;;;;;;4991457;28;20445;-71
2023/01/31 15:28:09;;;;;;;5.00;2.80;;;;;;;;;;4995180;28;20029;-77
2023/01/31 15:30:59;;;;;;;5.95;2.55;;;;;;;;;;4998562;28;20041;-73
2023/01/31 15:33:49;;;;;;;6.07;2.47;;;;;;;;;;4997008;28;20038;-72
2023/01/31 15:36:37;;;;;;;7.28;2.75;;;;;;;;;;5008331;28;20561;-73
2023/01/31 15:39:29;;;;;;;6.00;2.38;;;;;;;;;;4992650;28;20026;-72
2023/01/31 15:42:33;;;;;;;7.25;2.78;;;;;;;;;;5001766;28;20036;-74
2023/01/31 15:45:20;;;;;;;7.38;2.60;;;;;;;;;;4990694;28;20485;-72
2023/01/31 15:48:10;;;;;;;4.90;2.30;;;;;;;;;;4995614;28;20026;-74
2023/01/31 15:50:58;;;;;;;;;;;;;;;;;;5004569;28;20038;-73
2023/01/31 15:53:45;;;;;;;11.35;2.70;;;;;;;;;;4988363;28;19916;-74
2023/01/31 15:56:31;;;;;;;6.25;2.90;;;;;;;;;;4982121;28;20030;-74
2023/01/31 15:59:17;;;;;;;7.40;2.45;;;;;;;;;;4988523;28;20060;-72
2023/01/31 16:02:03;;;;;;;8.68;2.45;;;;;;;;;;4985996;28;20453;-73
2023/01/31 16:04:49;;;;;;;4.90;2.13;;;;;;;;;;4990741;28;20027;-76
2023/01/31 16:07:34;;;;;;;7.22;2.97;;;;;;;;;;4995085;28;20034;-71
2023/01/31 16:10:20;;;;;;;7.22;2.58;;;;;;;;;;5012474;28;20033;-72
2023/01/31 16:13:05;;;;;;;5.35;2.47;;;;;;;;;;4994146;28;20377;-73
2023/01/31 16:15:51;;;;;;;6.00;2.88;;;;;;;;;;5003184;28;20100;-71
2023/01/31 16:18:37;;;;;;;8.05;2.50;;;;;;;;;;4990730;28;20411;-70
2023/01/31 16:21:28;;;;;;;7.07;2.28;;;;;;;;;;5005285;28;20402;-70
2023/01/31 16:24:14;;;;;;;7.45;2.80;;;;;;;;;;4997252;28;20023;-73
2023/01/31 16:27:07;;;;;;;8.90;3.40;;;;;;;;;;4985494;28;20404;-73
2023/01/31 16:29:54;;;;;;;6.90;2.40;;;;;;;;;;4975011;28;20022;-72
2023/01/31 16:32:40;;;;;;;8.35;2.40;;;;;;;;;;5005534;28;20528;-76
2023/01/31 16:35:27;;;;;;;9.68;3.17;;;;;;;;;;4992792;28;20066;-73
2023/01/31 16:38:17;;;;;;;7.47;3.25;;;;;;;;;;5005626;28;20388;-73
2023/01/31 16:41:06;;;;;;;6.63;2.78;;;;;;;;;;5002529;28;20485;-75
2023/01/31 16:43:52;;;;;;;6.28;2.53;;;;;;;;;;4999002;28;20033;-74
2023/01/31 16:46:38;;;;;;;4.40;2.40;;;;;;;;;;5000814;28;20484;-72
2023/01/31 16:49:32;;;;;;;6.00;3.35;;;;;;;;;;4980005;28;20165;-73
2023/01/31 16:52:26;;;;;;;8.45;2.50;;;;;;;;;;5003517;28;20033;-73
2023/01/31 16:55:13;;;;;;;7.93;2.30;;;;;;;;;;4995180;28;20018;-73
2023/01/31 16:57:58;;;;;;;4.25;2.17;;;;;;;;;;4992032;28;20034;-73
2023/01/31 17:00:44;;;;;;;7.88;2.33;;;;;;;;;;4989309;28;20044;-72
2023/01/31 17:03:29;;;;;;;6.40;2.80;;;;;;;;;;4993167;28;20022;-74
2023/01/31 17:06:17;;;;;;;5.63;3.10;;;;;;;;;;4993768;28;20029;-75
2023/01/31 17:09:03;;;;;;;6.97;3.00;;;;;;;;;;4990785;28;20018;-74
2023/01/31 17:11:48;;;;;;;9.65;3.13;;;;;;;;;;4996386;28;20114;-75
2023/01/31 17:14:34;;;;;;;8.80;3.30;;;;;;;;;;4994439;28;20025;-74
2023/01/31 17:17:19;;;;;;;6.93;2.63;;;;;;;;;;4991748;28;20036;-75
2023/01/31 17:20:05;;;;;;;9.63;3.55;;;;;;;;;;4999464;28;20037;-70
2023/01/31 17:22:50;;;;;;;6.18;2.33;;;;;;;;;;4995117;28;20034;-71
2023/01/31 17:25:35;;;;;;;11.25;3.65;;;;;;;;;;4992041;28;20026;-71
2023/01/31 17:28:21;;;;;;;7.15;3.10;;;;;;;;;;4980895;28;20033;-70
2023/01/31 17:31:10;;;;;;;7.70;3.83;;;;;;;;;;5011420;28;20481;-70
2023/01/31 17:33:55;;;;;;;6.75;2.47;;;;;;;;;;4998931;28;20170;-70
2023/01/31 17:36:41;;;;;;;7.75;2.63;;;;;;;;;;4995992;28;20045;-73
2023/01/31 17:39:26;;;;;;;6.70;3.45;;;;;;;;;;4998123;28;20476;-69
2023/01/31 17:42:14;;;;;;;6.45;2.78;;;;;;;;;;5001369;28;20029;-70
2023/01/31 17:44:59;;;;;;;6.93;2.67;;;;;;;;;;5000031;28;20045;-71
2023/01/31 17:47:45;;;;;;;6.43;2.85;;;;;;;;;;4988498;28;20030;-71
2023/01/31 17:50:30;;;;;;;8.73;3.42;;;;;;;;;;4992077;28;20092;-71
2023/01/31 17:53:15;;;;;;;6.10;3.20;;;;;;;;;;4993678;28;20022;-71
2023/01/31 17:56:01;;;;;;;6.60;2.67;;;;;;;;;;4996987;28;20030;-75
2023/01/31 17:58:48;;;;;;;8.57;3.20;;;;;;;;;;4998324;28;20036;-74
2023/01/31 18:01:33;;;;;;;7.13;2.55;;;;;;;;;;4993680;28;20030;-75